sensor_id;sensor_type;location;lat;lon;timestamp;pressure;altitude;pressure_sealevel;temperature;humidity
65173;BME280;51758;52.218;5.172;2023-03-24T00:01:03;96917.03;;;10.89;100.00
65173;BME280;51758;52.218;5.172;2023-03-24T00:03:32;96900.63;;;10.89;100.00
65173;BME280;51758;52.218;5.172;2023-03-24T00:06:02;96883.34;;;10.93;100.00
65173;BME280;51758;52.218;5.172;2023-03-24T00:08:32;96874.75;;;10.92;100.00
65173;BME280;51758;52.218;5.172;2023-03-24T00:11:06;96872.41;;;10.91;100.00
65173;BME280;51758;52.218;5.172;2023-03-24T00:13:35;96854.13;;;10.91;100.00
65173;BME280;51758;52.218;5.172;2023-03-24T00:16:07;96834.81;;;10.92;100.00
65173;BME280;51758;52.218;5.172;2023-03-24T00:18:35;96828.81;;;10.91;100.00
65173;BME280;51758;52.218;5.172;2023-03-24T00:21:06;96809.78;;;10.91;100.00
65173;BME280;51758;52.218;5.172;2023-03-24T00:23:34;96789.97;;;10.90;100.00
65173;BME280;51758;52.218;5.172;2023-03-24T00:26:04;96773.25;;;10.91;100.00
65173;BME280;51758;52.218;5.172;2023-03-24T00:28:33;96750.81;;;10.90;100.00
65173;BME280;51758;52.218;5.172;2023-03-24T00:31:05;96733.63;;;10.89;100.00
65173;BME280;51758;52.218;5.172;2023-03-24T00:33:35;96726.56;;;10.89;100.00
65173;BME280;51758;52.218;5.172;2023-03-24T00:36:04;96709.38;;;10.88;100.00
65173;BME280;51758;52.218;5.172;2023-03-24T00:38:33;96694.97;;;10.91;100.00
65173;BME280;51758;52.218;5.172;2023-03-24T00:41:01;96678.47;;;10.95;100.00
65173;BME280;51758;52.218;5.172;2023-03-24T00:43:29;96664.53;;;10.86;100.00
65173;BME280;51758;52.218;5.172;2023-03-24T00:45:57;96670.66;;;10.95;100.00
65173;BME280;51758;52.218;5.172;2023-03-24T00:48:29;96664.38;;;10.96;100.00
65173;BME280;51758;52.218;5.172;2023-03-24T00:50:59;96641.66;;;10.97;100.00
65173;BME280;51758;52.218;5.172;2023-03-24T00:53:28;96633.56;;;10.98;100.00
65173;BME280;51758;52.218;5.172;2023-03-24T00:55:57;96644.13;;;11.07;100.00
65173;BME280;51758;52.218;5.172;2023-03-24T00:58:25;96644.34;;;11.10;100.00
65173;BME280;51758;52.218;5.172;2023-03-24T01:00:56;96626.50;;;11.18;100.00
65173;BME280;51758;52.218;5.172;2023-03-24T01:03:25;96618.47;;;11.14;100.00
65173;BME280;51758;52.218;5.172;2023-03-24T01:05:59;96622.91;;;11.13;100.00
65173;BME280;51758;52.218;5.172;2023-03-24T01:08:29;96623.97;;;11.12;100.00
65173;BME280;51758;52.218;5.172;2023-03-24T01:10:58;96626.22;;;11.19;100.00
65173;BME280;51758;52.218;5.172;2023-03-24T01:13:28;96579.53;;;10.99;100.00
65173;BME280;51758;52.218;5.172;2023-03-24T01:15:56;96633.75;;;11.21;100.00
65173;BME280;51758;52.218;5.172;2023-03-24T01:18:24;96620.31;;;11.13;100.00
65173;BME280;51758;52.218;5.172;2023-03-24T01:20:54;96622.25;;;11.22;100.00
65173;BME280;51758;52.218;5.172;2023-03-24T01:23:24;96629.53;;;11.25;100.00
65173;BME280;51758;52.218;5.172;2023-03-24T01:25:52;96625.94;;;11.21;100.00
65173;BME280;51758;52.218;5.172;2023-03-24T01:28:22;96643.09;;;11.27;100.00
65173;BME280;51758;52.218;5.172;2023-03-24T01:30:51;96608.16;;;11.04;100.00
65173;BME280;51758;52.218;5.172;2023-03-24T01:33:19;96630.59;;;11.24;100.00
65173;BME280;51758;52.218;5.172;2023-03-24T01:35:47;96631.38;;;11.24;100.00
65173;BME280;51758;52.218;5.172;2023-03-24T01:38:17;96642.59;;;11.25;100.00
65173;BME280;51758;52.218;5.172;2023-03-24T01:40:45;96639.97;;;11.25;100.00
65173;BME280;51758;52.218;5.172;2023-03-24T01:43:16;96638.91;;;11.26;100.00
65173;BME280;51758;52.218;5.172;2023-03-24T01:45:55;96621.72;;;11.25;100.00
65173;BME280;51758;52.218;5.172;2023-03-24T01:48:27;96624.03;;;11.26;100.00
65173;BME280;51758;52.218;5.172;2023-03-24T01:50:58;96636.31;;;11.26;100.00
65173;BME280;51758;52.218;5.172;2023-03-24T01:53:29;96629.72;;;11.28;100.00
65173;BME280;51758;52.218;5.172;2023-03-24T01:55:59;96626.84;;;11.30;100.00
65173;BME280;51758;52.218;5.172;2023-03-24T01:58:30;96631.56;;;11.28;100.00
65173;BME280;51758;52.218;5.172;2023-03-24T02:00:58;96631.00;;;11.31;100.00
65173;BME280;51758;52.218;5.172;2023-03-24T02:03:26;96625.22;;;11.34;100.00
65173;BME280;51758;52.218;5.172;2023-03-24T02:06:00;96633.53;;;11.36;100.00
65173;BME280;51758;52.218;5.172;2023-03-24T02:08:35;96618.56;;;11.41;100.00
65173;BME280;51758;52.218;5.172;2023-03-24T02:11:04;96632.00;;;11.35;100.00
65173;BME280;51758;52.218;5.172;2023-03-24T02:13:32;96637.44;;;11.38;100.00
65173;BME280;51758;52.218;5.172;2023-03-24T02:16:09;96651.03;;;11.35;100.00
65173;BME280;51758;52.218;5.172;2023-03-24T02:18:46;96670.09;;;11.36;100.00
65173;BME280;51758;52.218;5.172;2023-03-24T02:21:46;96644.19;;;11.39;100.00
65173;BME280;51758;52.218;5.172;2023-03-24T02:27:45;96676.50;;;11.43;100.00
65173;BME280;51758;52.218;5.172;2023-03-24T02:30:35;96709.69;;;11.43;100.00
65173;BME280;51758;52.218;5.172;2023-03-24T02:33:29;96785.00;;;11.36;100.00
65173;BME280;51758;52.218;5.172;2023-03-24T02:36:27;96854.34;;;11.23;100.00
65173;BME280;51758;52.218;5.172;2023-03-24T02:39:29;96951.50;;;11.15;100.00
65173;BME280;51758;52.218;5.172;2023-03-24T02:42:05;97070.34;;;11.07;100.00
65173;BME280;51758;52.218;5.172;2023-03-24T02:44:41;97164.66;;;10.96;100.00
65173;BME280;51758;52.218;5.172;2023-03-24T02:47:16;97241.16;;;10.81;100.00
65173;BME280;51758;52.218;5.172;2023-03-24T02:49:49;97324.69;;;10.76;100.00
65173;BME280;51758;52.218;5.172;2023-03-24T02:52:22;97373.75;;;10.69;100.00
65173;BME280;51758;52.218;5.172;2023-03-24T02:55:01;97426.97;;;10.68;100.00
65173;BME280;51758;52.218;5.172;2023-03-24T02:57:32;97459.28;;;10.52;100.00
65173;BME280;51758;52.218;5.172;2023-03-24T03:00:06;97511.19;;;10.53;100.00
65173;BME280;51758;52.218;5.172;2023-03-24T03:02:40;97547.69;;;10.53;100.00
65173;BME280;51758;52.218;5.172;2023-03-24T03:05:13;97586.00;;;10.43;100.00
65173;BME280;51758;52.218;5.172;2023-03-24T03:07:43;97606.34;;;10.40;100.00
65173;BME280;51758;52.218;5.172;2023-03-24T03:10:18;97644.63;;;10.30;100.00
65173;BME280;51758;52.218;5.172;2023-03-24T03:12:49;97656.91;;;10.34;100.00
65173;BME280;51758;52.218;5.172;2023-03-24T03:15:21;97679.81;;;10.27;100.00
65173;BME280;51758;52.218;5.172;2023-03-24T03:17:54;97700.66;;;10.22;100.00
65173;BME280;51758;52.218;5.172;2023-03-24T03:20:28;97719.94;;;10.26;100.00
65173;BME280;51758;52.218;5.172;2023-03-24T03:23:03;97736.38;;;10.22;100.00
65173;BME280;51758;52.218;5.172;2023-03-24T03:25:35;97772.63;;;10.23;100.00
65173;BME280;51758;52.218;5.172;2023-03-24T03:28:08;97803.25;;;10.11;100.00
65173;BME280;51758;52.218;5.172;2023-03-24T03:30:41;97792.78;;;10.06;100.00
65173;BME280;51758;52.218;5.172;2023-03-24T03:33:15;97810.22;;;10.05;100.00
65173;BME280;51758;52.218;5.172;2023-03-24T03:35:52;97813.06;;;9.99;100.00
65173;BME280;51758;52.218;5.172;2023-03-24T03:38:27;97832.03;;;9.94;100.00
65173;BME280;51758;52.218;5.172;2023-03-24T03:41:01;97847.34;;;9.86;100.00
65173;BME280;51758;52.218;5.172;2023-03-24T03:43:32;97861.28;;;9.75;100.00
65173;BME280;51758;52.218;5.172;2023-03-24T03:46:00;97860.22;;;9.76;100.00
65173;BME280;51758;52.218;5.172;2023-03-24T03:48:28;97856.06;;;9.75;100.00
65173;BME280;51758;52.218;5.172;2023-03-24T03:50:56;97853.09;;;9.88;100.00
65173;BME280;51758;52.218;5.172;2023-03-24T03:53:43;97861.22;;;9.69;100.00
65173;BME280;51758;52.218;5.172;2023-03-24T03:56:17;97864.63;;;9.70;100.00
65173;BME280;51758;52.218;5.172;2023-03-24T03:58:45;97884.66;;;9.69;100.00
65173;BME280;51758;52.218;5.172;2023-03-24T04:01:15;97883.31;;;9.67;100.00
65173;BME280;51758;52.218;5.172;2023-03-24T04:04:08;97885.16;;;9.66;100.00
65173;BME280;51758;52.218;5.172;2023-03-24T04:06:49;97874.19;;;9.64;100.00
65173;BME280;51758;52.218;5.172;2023-03-24T04:09:33;97892.28;;;9.54;100.00
65173;BME280;51758;52.218;5.172;2023-03-24T04:12:20;97886.53;;;9.52;100.00
65173;BME280;51758;52.218;5.172;2023-03-24T04:15:02;97892.41;;;9.43;100.00
65173;BME280;51758;52.218;5.172;2023-03-24T04:17:45;97871.34;;;9.44;100.00
65173;BME280;51758;52.218;5.172;2023-03-24T04:20:19;97872.13;;;9.45;100.00
65173;BME280;51758;52.218;5.172;2023-03-24T04:23:01;97870.38;;;9.28;100.00
65173;BME280;51758;52.218;5.172;2023-03-24T04:25:42;97879.75;;;9.51;100.00
65173;BME280;51758;52.218;5.172;2023-03-24T04:28:18;97885.88;;;9.40;100.00
65173;BME280;51758;52.218;5.172;2023-03-24T04:30:49;97883.09;;;9.47;100.00
65173;BME280;51758;52.218;5.172;2023-03-24T04:33:24;97889.03;;;9.42;100.00
65173;BME280;51758;52.218;5.172;2023-03-24T04:35:59;97893.03;;;9.50;100.00
65173;BME280;51758;52.218;5.172;2023-03-24T04:38:33;97895.34;;;9.46;100.00
65173;BME280;51758;52.218;5.172;2023-03-24T04:41:04;97900.53;;;9.46;100.00
65173;BME280;51758;52.218;5.172;2023-03-24T04:43:33;97903.69;;;9.48;100.00
65173;BME280;51758;52.218;5.172;2023-03-24T04:46:03;97919.38;;;9.53;100.00
65173;BME280;51758;52.218;5.172;2023-03-24T04:48:32;97898.88;;;9.18;100.00
65173;BME280;51758;52.218;5.172;2023-03-24T04:51:01;97939.84;;;9.45;100.00
65173;BME280;51758;52.218;5.172;2023-03-24T04:53:29;97941.97;;;9.48;100.00
65173;BME280;51758;52.218;5.172;2023-03-24T04:56:09;97938.91;;;9.34;100.00
65173;BME280;51758;52.218;5.172;2023-03-24T04:58:42;97954.13;;;9.42;100.00
65173;BME280;51758;52.218;5.172;2023-03-24T05:01:10;97964.91;;;9.51;100.00
65173;BME280;51758;52.218;5.172;2023-03-24T05:03:39;97962.56;;;9.49;100.00
65173;BME280;51758;52.218;5.172;2023-03-24T05:06:08;97973.38;;;9.41;100.00
65173;BME280;51758;52.218;5.172;2023-03-24T05:08:36;97980.34;;;9.36;100.00
65173;BME280;51758;52.218;5.172;2023-03-24T05:11:05;97992.63;;;9.40;100.00
65173;BME280;51758;52.218;5.172;2023-03-24T05:13:33;97997.22;;;9.33;100.00
65173;BME280;51758;52.218;5.172;2023-03-24T05:16:02;98007.66;;;9.33;100.00
65173;BME280;51758;52.218;5.172;2023-03-24T05:18:30;98013.63;;;9.33;100.00
65173;BME280;51758;52.218;5.172;2023-03-24T05:20:58;98026.41;;;9.35;100.00
65173;BME280;51758;52.218;5.172;2023-03-24T05:23:26;98030.97;;;9.28;100.00
65173;BME280;51758;52.218;5.172;2023-03-24T05:25:53;98041.16;;;9.29;100.00
65173;BME280;51758;52.218;5.172;2023-03-24T05:28:21;98045.03;;;9.27;100.00
65173;BME280;51758;52.218;5.172;2023-03-24T05:30:49;98054.50;;;9.16;100.00
65173;BME280;51758;52.218;5.172;2023-03-24T05:33:18;98057.72;;;9.07;100.00
65173;BME280;51758;52.218;5.172;2023-03-24T05:35:46;98079.81;;;9.04;100.00
65173;BME280;51758;52.218;5.172;2023-03-24T05:38:14;98074.28;;;9.17;100.00
65173;BME280;51758;52.218;5.172;2023-03-24T05:40:42;98086.69;;;9.10;100.00
65173;BME280;51758;52.218;5.172;2023-03-24T05:43:10;98086.50;;;9.00;100.00
65173;BME280;51758;52.218;5.172;2023-03-24T05:45:38;98093.13;;;9.08;100.00
65173;BME280;51758;52.218;5.172;2023-03-24T05:48:06;98102.75;;;9.07;100.00
65173;BME280;51758;52.218;5.172;2023-03-24T05:50:36;98099.81;;;9.04;100.00
65173;BME280;51758;52.218;5.172;2023-03-24T05:53:03;98099.53;;;9.17;100.00
65173;BME280;51758;52.218;5.172;2023-03-24T05:55:31;98095.13;;;9.17;100.00
65173;BME280;51758;52.218;5.172;2023-03-24T05:57:59;98095.91;;;9.18;100.00
65173;BME280;51758;52.218;5.172;2023-03-24T06:00:29;98096.47;;;9.20;100.00
65173;BME280;51758;52.218;5.172;2023-03-24T06:02:57;98063.78;;;8.95;100.00
65173;BME280;51758;52.218;5.172;2023-03-24T06:05:26;98108.94;;;9.34;100.00
65173;BME280;51758;52.218;5.172;2023-03-24T06:07:55;98110.13;;;9.44;100.00
65173;BME280;51758;52.218;5.172;2023-03-24T06:10:24;98117.84;;;9.39;100.00
65173;BME280;51758;52.218;5.172;2023-03-24T06:12:53;98127.00;;;9.41;100.00
65173;BME280;51758;52.218;5.172;2023-03-24T06:15:22;98137.09;;;9.38;100.00
65173;BME280;51758;52.218;5.172;2023-03-24T06:17:53;98129.06;;;9.39;100.00
65173;BME280;51758;52.218;5.172;2023-03-24T06:20:21;98150.88;;;9.50;100.00
65173;BME280;51758;52.218;5.172;2023-03-24T06:22:49;98157.72;;;9.56;100.00
65173;BME280;51758;52.218;5.172;2023-03-24T06:25:18;98167.50;;;9.49;100.00
65173;BME280;51758;52.218;5.172;2023-03-24T06:27:47;98173.97;;;9.46;100.00
65173;BME280;51758;52.218;5.172;2023-03-24T06:30:16;98181.41;;;9.54;100.00
65173;BME280;51758;52.218;5.172;2023-03-24T06:32:44;98180.38;;;9.55;100.00
65173;BME280;51758;52.218;5.172;2023-03-24T06:35:13;98183.78;;;9.56;100.00
65173;BME280;51758;52.218;5.172;2023-03-24T06:37:41;98191.81;;;9.54;100.00
65173;BME280;51758;52.218;5.172;2023-03-24T06:40:10;98197.19;;;9.64;100.00
65173;BME280;51758;52.218;5.172;2023-03-24T06:42:42;98209.19;;;9.65;100.00
65173;BME280;51758;52.218;5.172;2023-03-24T06:45:10;98220.88;;;9.63;100.00
65173;BME280;51758;52.218;5.172;2023-03-24T06:47:38;98243.94;;;9.71;100.00
65173;BME280;51758;52.218;5.172;2023-03-24T06:50:06;98256.09;;;9.65;100.00
65173;BME280;51758;52.218;5.172;2023-03-24T06:52:35;98268.66;;;9.68;100.00
65173;BME280;51758;52.218;5.172;2023-03-24T06:55:03;98279.41;;;9.72;100.00
65173;BME280;51758;52.218;5.172;2023-03-24T06:57:31;98293.78;;;9.75;100.00
65173;BME280;51758;52.218;5.172;2023-03-24T07:00:00;98304.84;;;9.82;100.00
65173;BME280;51758;52.218;5.172;2023-03-24T07:02:34;98304.38;;;9.85;100.00
65173;BME280;51758;52.218;5.172;2023-03-24T07:05:04;98312.19;;;9.85;100.00
65173;BME280;51758;52.218;5.172;2023-03-24T07:07:34;98330.59;;;9.95;100.00
65173;BME280;51758;52.218;5.172;2023-03-24T07:10:06;98340.41;;;9.88;100.00
65173;BME280;51758;52.218;5.172;2023-03-24T07:12:34;98343.53;;;9.90;100.00
65173;BME280;51758;52.218;5.172;2023-03-24T07:15:04;98360.34;;;9.82;100.00
65173;BME280;51758;52.218;5.172;2023-03-24T07:17:32;98352.19;;;9.79;100.00
65173;BME280;51758;52.218;5.172;2023-03-24T07:20:00;98372.31;;;9.95;100.00
65173;BME280;51758;52.218;5.172;2023-03-24T07:22:32;98371.34;;;10.01;100.00
65173;BME280;51758;52.218;5.172;2023-03-24T07:25:00;98392.69;;;9.98;100.00
65173;BME280;51758;52.218;5.172;2023-03-24T07:27:30;98393.78;;;10.02;100.00
65173;BME280;51758;52.218;5.172;2023-03-24T07:29:59;98399.34;;;10.05;100.00
65173;BME280;51758;52.218;5.172;2023-03-24T07:32:29;98396.09;;;10.27;100.00
65173;BME280;51758;52.218;5.172;2023-03-24T07:35:00;98402.66;;;10.29;100.00
65173;BME280;51758;52.218;5.172;2023-03-24T07:37:29;98407.09;;;10.17;100.00
65173;BME280;51758;52.218;5.172;2023-03-24T07:39:57;98433.31;;;10.22;100.00
65173;BME280;51758;52.218;5.172;2023-03-24T07:42:25;98438.47;;;10.34;100.00
65173;BME280;51758;52.218;5.172;2023-03-24T07:44:53;98449.69;;;10.34;100.00
65173;BME280;51758;52.218;5.172;2023-03-24T07:47:21;98440.22;;;10.45;100.00
65173;BME280;51758;52.218;5.172;2023-03-24T07:49:50;98448.69;;;10.52;100.00
65173;BME280;51758;52.218;5.172;2023-03-24T07:52:17;98457.13;;;10.43;100.00
65173;BME280;51758;52.218;5.172;2023-03-24T07:54:45;98468.81;;;10.40;100.00
65173;BME280;51758;52.218;5.172;2023-03-24T07:57:13;98484.69;;;10.50;100.00
65173;BME280;51758;52.218;5.172;2023-03-24T07:59:41;98485.03;;;10.42;100.00
65173;BME280;51758;52.218;5.172;2023-03-24T08:02:15;98497.34;;;10.58;100.00
65173;BME280;51758;52.218;5.172;2023-03-24T08:04:43;98512.81;;;10.65;100.00
65173;BME280;51758;52.218;5.172;2023-03-24T08:07:13;98512.81;;;10.65;100.00
65173;BME280;51758;52.218;5.172;2023-03-24T08:09:41;98535.22;;;10.61;100.00
65173;BME280;51758;52.218;5.172;2023-03-24T08:12:09;98555.69;;;10.69;100.00
65173;BME280;51758;52.218;5.172;2023-03-24T08:14:46;98558.13;;;10.87;100.00
65173;BME280;51758;52.218;5.172;2023-03-24T08:17:13;98562.91;;;10.78;100.00
65173;BME280;51758;52.218;5.172;2023-03-24T08:19:41;98583.91;;;10.84;100.00
65173;BME280;51758;52.218;5.172;2023-03-24T08:22:26;98558.91;;;10.88;100.00
65173;BME280;51758;52.218;5.172;2023-03-24T08:24:54;98594.38;;;11.00;100.00
65173;BME280;51758;52.218;5.172;2023-03-24T08:27:21;98598.47;;;10.96;100.00
65173;BME280;51758;52.218;5.172;2023-03-24T08:29:49;98610.41;;;10.92;100.00
65173;BME280;51758;52.218;5.172;2023-03-24T08:32:17;98631.25;;;11.04;100.00
65173;BME280;51758;52.218;5.172;2023-03-24T08:34:45;98631.44;;;11.14;100.00
65173;BME280;51758;52.218;5.172;2023-03-24T08:37:13;98640.31;;;11.30;100.00
65173;BME280;51758;52.218;5.172;2023-03-24T08:39:42;98646.25;;;11.42;100.00
65173;BME280;51758;52.218;5.172;2023-03-24T08:42:10;98658.56;;;11.58;100.00
65173;BME280;51758;52.218;5.172;2023-03-24T08:44:37;98699.41;;;11.47;100.00
65173;BME280;51758;52.218;5.172;2023-03-24T08:47:05;98714.13;;;11.37;100.00
65173;BME280;51758;52.218;5.172;2023-03-24T08:49:33;98725.13;;;11.39;100.00
65173;BME280;51758;52.218;5.172;2023-03-24T08:52:00;98737.81;;;11.47;100.00
65173;BME280;51758;52.218;5.172;2023-03-24T08:54:28;98755.06;;;11.48;100.00
65173;BME280;51758;52.218;5.172;2023-03-24T08:56:57;98762.06;;;11.59;100.00
65173;BME280;51758;52.218;5.172;2023-03-24T08:59:26;98747.13;;;11.71;100.00
65173;BME280;51758;52.218;5.172;2023-03-24T09:01:54;98779.34;;;12.39;100.00
65173;BME280;51758;52.218;5.172;2023-03-24T09:04:22;98793.03;;;13.01;100.00
65173;BME280;51758;52.218;5.172;2023-03-24T09:06:50;98860.31;;;12.79;100.00
65173;BME280;51758;52.218;5.172;2023-03-24T09:09:28;98861.81;;;13.13;100.00
65173;BME280;51758;52.218;5.172;2023-03-24T09:11:57;98901.91;;;13.31;100.00
65173;BME280;51758;52.218;5.172;2023-03-24T09:14:25;98955.75;;;13.21;100.00
65173;BME280;51758;52.218;5.172;2023-03-24T09:16:53;98955.16;;;13.14;100.00
65173;BME280;51758;52.218;5.172;2023-03-24T09:19:21;98978.88;;;12.91;100.00
65173;BME280;51758;52.218;5.172;2023-03-24T09:21:49;98987.81;;;12.33;100.00
65173;BME280;51758;52.218;5.172;2023-03-24T09:24:17;98977.63;;;12.48;100.00
65173;BME280;51758;52.218;5.172;2023-03-24T09:26:45;98978.13;;;12.34;100.00
65173;BME280;51758;52.218;5.172;2023-03-24T09:29:14;98968.72;;;12.49;100.00
65173;BME280;51758;52.218;5.172;2023-03-24T09:31:42;98960.88;;;12.49;100.00
65173;BME280;51758;52.218;5.172;2023-03-24T09:34:09;98960.97;;;12.54;100.00
65173;BME280;51758;52.218;5.172;2023-03-24T09:36:37;98945.75;;;12.68;100.00
65173;BME280;51758;52.218;5.172;2023-03-24T09:39:05;98959.47;;;12.59;100.00
65173;BME280;51758;52.218;5.172;2023-03-24T09:41:34;98947.25;;;12.64;100.00
65173;BME280;51758;52.218;5.172;2023-03-24T09:44:05;98938.38;;;12.82;100.00
65173;BME280;51758;52.218;5.172;2023-03-24T09:46:43;98925.13;;;12.88;100.00
65173;BME280;51758;52.218;5.172;2023-03-24T09:49:16;98920.66;;;12.55;100.00
65173;BME280;51758;52.218;5.172;2023-03-24T09:51:46;98953.75;;;12.62;100.00
65173;BME280;51758;52.218;5.172;2023-03-24T09:54:18;98961.50;;;12.40;100.00
65173;BME280;51758;52.218;5.172;2023-03-24T09:56:48;98973.78;;;12.39;100.00
65173;BME280;51758;52.218;5.172;2023-03-24T09:59:19;98959.84;;;12.50;100.00
65173;BME280;51758;52.218;5.172;2023-03-24T10:01:48;98954.38;;;12.69;100.00
65173;BME280;51758;52.218;5.172;2023-03-24T10:04:19;98981.59;;;12.68;100.00
65173;BME280;51758;52.218;5.172;2023-03-24T10:06:52;99002.53;;;12.68;100.00
65173;BME280;51758;52.218;5.172;2023-03-24T10:09:22;99039.19;;;12.51;100.00
65173;BME280;51758;52.218;5.172;2023-03-24T10:11:59;99029.38;;;12.75;100.00
65173;BME280;51758;52.218;5.172;2023-03-24T10:14:45;99062.97;;;12.49;100.00
65173;BME280;51758;52.218;5.172;2023-03-24T10:17:26;99069.69;;;12.45;100.00
65173;BME280;51758;52.218;5.172;2023-03-24T10:20:00;99085.53;;;12.67;100.00
65173;BME280;51758;52.218;5.172;2023-03-24T10:22:34;99107.72;;;12.76;100.00
65173;BME280;51758;52.218;5.172;2023-03-24T10:25:13;99104.13;;;12.66;100.00
65173;BME280;51758;52.218;5.172;2023-03-24T10:27:46;99116.69;;;12.52;100.00
65173;BME280;51758;52.218;5.172;2023-03-24T10:30:18;99115.13;;;12.39;100.00
65173;BME280;51758;52.218;5.172;2023-03-24T10:32:48;99120.59;;;12.26;100.00
65173;BME280;51758;52.218;5.172;2023-03-24T10:35:18;99100.88;;;12.35;100.00
65173;BME280;51758;52.218;5.172;2023-03-24T10:37:49;99095.69;;;12.64;100.00
65173;BME280;51758;52.218;5.172;2023-03-24T10:40:20;99103.31;;;12.65;100.00
65173;BME280;51758;52.218;5.172;2023-03-24T10:42:49;99093.59;;;13.56;100.00
65173;BME280;51758;52.218;5.172;2023-03-24T10:45:37;99138.00;;;13.96;100.00
65173;BME280;51758;52.218;5.172;2023-03-24T10:48:07;99157.31;;;14.45;100.00
65173;BME280;51758;52.218;5.172;2023-03-24T10:50:40;99209.97;;;14.99;100.00
65173;BME280;51758;52.218;5.172;2023-03-24T10:53:15;99238.25;;;15.62;100.00
65173;BME280;51758;52.218;5.172;2023-03-24T10:55:44;99302.63;;;14.89;100.00
65173;BME280;51758;52.218;5.172;2023-03-24T10:58:18;99318.69;;;14.54;100.00
65173;BME280;51758;52.218;5.172;2023-03-24T11:00:47;99319.25;;;13.94;100.00
65173;BME280;51758;52.218;5.172;2023-03-24T11:03:23;99304.91;;;14.14;100.00
65173;BME280;51758;52.218;5.172;2023-03-24T11:05:57;99298.16;;;13.73;100.00
65173;BME280;51758;52.218;5.172;2023-03-24T11:08:27;99270.13;;;13.45;100.00
65173;BME280;51758;52.218;5.172;2023-03-24T11:10:58;99261.78;;;13.19;100.00
65173;BME280;51758;52.218;5.172;2023-03-24T11:13:29;99250.91;;;13.56;100.00
65173;BME280;51758;52.218;5.172;2023-03-24T11:16:07;99266.22;;;13.19;100.00
65173;BME280;51758;52.218;5.172;2023-03-24T11:18:53;99257.59;;;12.95;100.00
65173;BME280;51758;52.218;5.172;2023-03-24T11:21:22;99246.03;;;12.68;100.00
65173;BME280;51758;52.218;5.172;2023-03-24T11:23:50;99219.94;;;12.84;100.00
65173;BME280;51758;52.218;5.172;2023-03-24T11:26:19;99199.13;;;13.18;100.00
65173;BME280;51758;52.218;5.172;2023-03-24T11:28:50;99222.78;;;12.83;100.00
65173;BME280;51758;52.218;5.172;2023-03-24T11:31:22;99212.97;;;13.02;100.00
65173;BME280;51758;52.218;5.172;2023-03-24T11:33:56;99199.97;;;12.95;100.00
65173;BME280;51758;52.218;5.172;2023-03-24T11:36:39;99196.19;;;13.14;100.00
65173;BME280;51758;52.218;5.172;2023-03-24T11:39:14;99173.34;;;13.26;100.00
65173;BME280;51758;52.218;5.172;2023-03-24T11:41:59;99197.09;;;13.08;100.00
65173;BME280;51758;52.218;5.172;2023-03-24T11:44:30;99185.84;;;12.96;100.00
65173;BME280;51758;52.218;5.172;2023-03-24T11:47:03;99152.03;;;12.95;100.00
65173;BME280;51758;52.218;5.172;2023-03-24T11:49:38;99099.56;;;12.89;100.00
65173;BME280;51758;52.218;5.172;2023-03-24T11:52:20;99090.13;;;13.34;100.00
65173;BME280;51758;52.218;5.172;2023-03-24T11:54:49;99113.88;;;13.27;100.00
65173;BME280;51758;52.218;5.172;2023-03-24T11:57:23;99140.09;;;13.44;100.00
65173;BME280;51758;52.218;5.172;2023-03-24T11:59:57;99152.53;;;13.20;100.00
65173;BME280;51758;52.218;5.172;2023-03-24T12:02:39;99144.41;;;12.93;100.00
65173;BME280;51758;52.218;5.172;2023-03-24T12:05:20;99133.41;;;12.91;100.00
65173;BME280;51758;52.218;5.172;2023-03-24T12:11:02;99130.75;;;12.63;100.00
65173;BME280;51758;52.218;5.172;2023-03-24T12:13:35;99141.47;;;13.80;100.00
65173;BME280;51758;52.218;5.172;2023-03-24T12:16:33;99195.06;;;14.61;100.00
65173;BME280;51758;52.218;5.172;2023-03-24T12:19:24;99273.66;;;15.28;100.00
65173;BME280;51758;52.218;5.172;2023-03-24T12:22:05;99260.59;;;15.60;100.00
65173;BME280;51758;52.218;5.172;2023-03-24T12:24:46;99341.97;;;16.20;100.00
65173;BME280;51758;52.218;5.172;2023-03-24T12:27:26;99367.88;;;16.65;100.00
65173;BME280;51758;52.218;5.172;2023-03-24T12:29:59;99449.97;;;17.26;100.00
65173;BME280;51758;52.218;5.172;2023-03-24T12:32:38;99494.53;;;16.59;100.00
65173;BME280;51758;52.218;5.172;2023-03-24T12:35:28;99474.97;;;15.79;100.00
65173;BME280;51758;52.218;5.172;2023-03-24T12:38:20;99482.75;;;14.80;100.00
65173;BME280;51758;52.218;5.172;2023-03-24T12:41:05;99398.47;;;14.08;100.00
65173;BME280;51758;52.218;5.172;2023-03-24T12:43:44;99349.84;;;14.34;100.00
65173;BME280;51758;52.218;5.172;2023-03-24T12:46:20;99355.53;;;14.59;100.00
65173;BME280;51758;52.218;5.172;2023-03-24T12:49:18;99337.19;;;14.14;100.00
65173;BME280;51758;52.218;5.172;2023-03-24T12:51:56;99310.41;;;15.45;100.00
65173;BME280;51758;52.218;5.172;2023-03-24T12:54:30;99348.38;;;15.75;100.00
65173;BME280;51758;52.218;5.172;2023-03-24T12:57:05;99373.22;;;15.41;100.00
65173;BME280;51758;52.218;5.172;2023-03-24T12:59:39;99380.38;;;14.52;100.00
65173;BME280;51758;52.218;5.172;2023-03-24T13:02:15;99350.78;;;14.95;100.00
65173;BME280;51758;52.218;5.172;2023-03-24T13:04:48;99383.03;;;15.07;100.00
65173;BME280;51758;52.218;5.172;2023-03-24T13:07:20;99398.63;;;14.30;100.00
65173;BME280;51758;52.218;5.172;2023-03-24T13:09:56;99378.78;;;14.06;100.00
65173;BME280;51758;52.218;5.172;2023-03-24T13:12:30;99362.34;;;14.27;100.00
65173;BME280;51758;52.218;5.172;2023-03-24T13:15:06;99370.69;;;15.29;100.00
65173;BME280;51758;52.218;5.172;2023-03-24T13:17:44;99397.38;;;15.60;100.00
65173;BME280;51758;52.218;5.172;2023-03-24T13:20:21;99409.97;;;14.64;100.00
65173;BME280;51758;52.218;5.172;2023-03-24T13:22:51;99400.56;;;14.51;100.00
65173;BME280;51758;52.218;5.172;2023-03-24T13:25:30;99385.81;;;14.84;100.00